sensor_id;sensor_type;location;lat;lon;timestamp;P1;durP1;ratioP1;P2;durP2;ratioP2
19038;SDS011;9652;49.014;12.052;2023-04-16T00:00:54;5.13;;;4.27;;
19038;SDS011;9652;49.014;12.052;2023-04-16T00:03:22;4.67;;;4.27;;
19038;SDS011;9652;49.014;12.052;2023-04-16T00:05:49;4.33;;;3.90;;
19038;SDS011;9652;49.014;12.052;2023-04-16T00:08:16;5.33;;;4.20;;
19038;SDS011;9652;49.014;12.052;2023-04-16T00:10:43;6.27;;;4.63;;
19038;SDS011;9652;49.014;12.052;2023-04-16T00:13:10;4.43;;;4.03;;
19038;SDS011;9652;49.014;12.052;2023-04-16T00:15:38;5.40;;;4.70;;
19038;SDS011;9652;49.014;12.052;2023-04-16T00:18:05;5.53;;;4.60;;
19038;SDS011;9652;49.014;12.052;2023-04-16T00:20:32;7.10;;;5.20;;
19038;SDS011;9652;49.014;12.052;2023-04-16T00:22:59;5.00;;;4.53;;
19038;SDS011;9652;49.014;12.052;2023-04-16T00:25:26;5.63;;;4.80;;
19038;SDS011;9652;49.014;12.052;2023-04-16T00:27:53;4.90;;;4.50;;
19038;SDS011;9652;49.014;12.052;2023-04-16T00:30:20;4.63;;;3.80;;
19038;SDS011;9652;49.014;12.052;2023-04-16T00:32:49;5.13;;;4.63;;
19038;SDS011;9652;49.014;12.052;2023-04-16T00:35:16;6.70;;;4.57;;
19038;SDS011;9652;49.014;12.052;2023-04-16T00:37:43;4.83;;;4.43;;
19038;SDS011;9652;49.014;12.052;2023-04-16T00:40:10;4.73;;;4.10;;
19038;SDS011;9652;49.014;12.052;2023-04-16T00:42:37;6.43;;;4.93;;
19038;SDS011;9652;49.014;12.052;2023-04-16T00:45:05;4.90;;;4.40;;
19038;SDS011;9652;49.014;12.052;2023-04-16T00:47:33;4.97;;;4.37;;
19038;SDS011;9652;49.014;12.052;2023-04-16T00:50:03;5.73;;;4.43;;
19038;SDS011;9652;49.014;12.052;2023-04-16T00:52:32;5.20;;;4.10;;
19038;SDS011;9652;49.014;12.052;2023-04-16T00:55:00;4.10;;;3.60;;
19038;SDS011;9652;49.014;12.052;2023-04-16T00:57:29;4.77;;;4.27;;
19038;SDS011;9652;49.014;12.052;2023-04-16T00:59:56;4.83;;;4.27;;
19038;SDS011;9652;49.014;12.052;2023-04-16T01:02:23;4.57;;;4.17;;
19038;SDS011;9652;49.014;12.052;2023-04-16T01:04:52;5.93;;;4.93;;
19038;SDS011;9652;49.014;12.052;2023-04-16T01:07:21;5.67;;;4.67;;
19038;SDS011;9652;49.014;12.052;2023-04-16T01:09:48;5.13;;;4.50;;
19038;SDS011;9652;49.014;12.052;2023-04-16T01:12:15;4.03;;;3.70;;
19038;SDS011;9652;49.014;12.052;2023-04-16T01:14:42;5.03;;;4.00;;
19038;SDS011;9652;49.014;12.052;2023-04-16T01:17:09;5.07;;;4.57;;
19038;SDS011;9652;49.014;12.052;2023-04-16T01:19:37;5.23;;;4.73;;
19038;SDS011;9652;49.014;12.052;2023-04-16T01:22:05;5.33;;;4.70;;
19038;SDS011;9652;49.014;12.052;2023-04-16T01:24:32;5.20;;;4.33;;
19038;SDS011;9652;49.014;12.052;2023-04-16T01:27:00;5.20;;;4.70;;
19038;SDS011;9652;49.014;12.052;2023-04-16T01:29:27;4.70;;;4.30;;
19038;SDS011;9652;49.014;12.052;2023-04-16T01:31:56;4.57;;;4.17;;
19038;SDS011;9652;49.014;12.052;2023-04-16T01:34:26;4.80;;;4.30;;
19038;SDS011;9652;49.014;12.052;2023-04-16T01:36:53;4.17;;;3.77;;
19038;SDS011;9652;49.014;12.052;2023-04-16T01:39:21;4.30;;;3.90;;
19038;SDS011;9652;49.014;12.052;2023-04-16T01:41:49;3.60;;;3.30;;
19038;SDS011;9652;49.014;12.052;2023-04-16T01:44:16;3.40;;;3.10;;
19038;SDS011;9652;49.014;12.052;2023-04-16T01:46:44;3.83;;;3.53;;
19038;SDS011;9652;49.014;12.052;2023-04-16T01:49:11;4.33;;;3.93;;
19038;SDS011;9652;49.014;12.052;2023-04-16T01:51:38;3.60;;;3.30;;
19038;SDS011;9652;49.014;12.052;2023-04-16T01:54:06;4.53;;;3.77;;
19038;SDS011;9652;49.014;12.052;2023-04-16T01:56:34;4.07;;;3.77;;
19038;SDS011;9652;49.014;12.052;2023-04-16T01:59:01;4.00;;;3.70;;
19038;SDS011;9652;49.014;12.052;2023-04-16T02:01:35;5.23;;;4.13;;
19038;SDS011;9652;49.014;12.052;2023-04-16T02:04:02;4.03;;;3.60;;
19038;SDS011;9652;49.014;12.052;2023-04-16T02:06:30;3.90;;;3.60;;
19038;SDS011;9652;49.014;12.052;2023-04-16T02:08:57;3.37;;;3.07;;
19038;SDS011;9652;49.014;12.052;2023-04-16T02:11:24;4.00;;;3.70;;
19038;SDS011;9652;49.014;12.052;2023-04-16T02:13:53;3.77;;;3.43;;
19038;SDS011;9652;49.014;12.052;2023-04-16T02:16:20;4.03;;;3.33;;
19038;SDS011;9652;49.014;12.052;2023-04-16T02:19:03;4.30;;;3.90;;
19038;SDS011;9652;49.014;12.052;2023-04-16T02:21:33;3.60;;;3.30;;
19038;SDS011;9652;49.014;12.052;2023-04-16T02:24:01;3.30;;;3.00;;
19038;SDS011;9652;49.014;12.052;2023-04-16T02:26:29;3.40;;;3.10;;
19038;SDS011;9652;49.014;12.052;2023-04-16T02:29:04;3.20;;;2.90;;
19038;SDS011;9652;49.014;12.052;2023-04-16T02:31:42;3.43;;;3.23;;
19038;SDS011;9652;49.014;12.052;2023-04-16T02:34:09;3.57;;;3.27;;
19038;SDS011;9652;49.014;12.052;2023-04-16T02:36:37;3.10;;;2.90;;
19038;SDS011;9652;49.014;12.052;2023-04-16T02:39:04;4.10;;;3.37;;
19038;SDS011;9652;49.014;12.052;2023-04-16T02:41:31;3.23;;;3.03;;
19038;SDS011;9652;49.014;12.052;2023-04-16T02:43:58;3.53;;;3.23;;
19038;SDS011;9652;49.014;12.052;2023-04-16T02:46:27;3.50;;;3.23;;
19038;SDS011;9652;49.014;12.052;2023-04-16T02:48:54;3.00;;;2.80;;
19038;SDS011;9652;49.014;12.052;2023-04-16T02:51:21;3.10;;;2.90;;
19038;SDS011;9652;49.014;12.052;2023-04-16T02:53:48;2.97;;;2.77;;
19038;SDS011;9652;49.014;12.052;2023-04-16T02:56:15;2.63;;;2.43;;
19038;SDS011;9652;49.014;12.052;2023-04-16T02:58:42;3.00;;;2.80;;
19038;SDS011;9652;49.014;12.052;2023-04-16T03:01:09;2.80;;;2.60;;
19038;SDS011;9652;49.014;12.052;2023-04-16T03:03:38;2.80;;;2.60;;
19038;SDS011;9652;49.014;12.052;2023-04-16T03:06:05;2.80;;;2.60;;
19038;SDS011;9652;49.014;12.052;2023-04-16T03:08:32;2.80;;;2.60;;
19038;SDS011;9652;49.014;12.052;2023-04-16T03:10:59;2.87;;;2.67;;
19038;SDS011;9652;49.014;12.052;2023-04-16T03:13:26;3.20;;;3.00;;
19038;SDS011;9652;49.014;12.052;2023-04-16T03:15:53;2.67;;;2.47;;
19038;SDS011;9652;49.014;12.052;2023-04-16T03:18:20;2.70;;;2.50;;
19038;SDS011;9652;49.014;12.052;2023-04-16T03:20:51;2.87;;;2.67;;
19038;SDS011;9652;49.014;12.052;2023-04-16T03:23:19;2.77;;;2.57;;
19038;SDS011;9652;49.014;12.052;2023-04-16T03:25:46;3.10;;;2.90;;
19038;SDS011;9652;49.014;12.052;2023-04-16T03:28:16;2.80;;;2.60;;
19038;SDS011;9652;49.014;12.052;2023-04-16T03:30:48;2.53;;;2.33;;
19038;SDS011;9652;49.014;12.052;2023-04-16T03:33:16;2.83;;;2.63;;
19038;SDS011;9652;49.014;12.052;2023-04-16T03:35:43;2.67;;;2.47;;
19038;SDS011;9652;49.014;12.052;2023-04-16T03:38:13;2.30;;;2.20;;
19038;SDS011;9652;49.014;12.052;2023-04-16T03:40:40;2.63;;;2.47;;
19038;SDS011;9652;49.014;12.052;2023-04-16T03:43:08;2.87;;;2.67;;
19038;SDS011;9652;49.014;12.052;2023-04-16T03:45:36;3.03;;;2.83;;
19038;SDS011;9652;49.014;12.052;2023-04-16T03:48:09;2.97;;;2.77;;
19038;SDS011;9652;49.014;12.052;2023-04-16T03:50:37;2.57;;;2.43;;
19038;SDS011;9652;49.014;12.052;2023-04-16T03:53:08;2.40;;;2.30;;
19038;SDS011;9652;49.014;12.052;2023-04-16T03:55:36;3.00;;;2.80;;
19038;SDS011;9652;49.014;12.052;2023-04-16T03:58:03;3.83;;;2.60;;
19038;SDS011;9652;49.014;12.052;2023-04-16T04:00:31;2.43;;;2.23;;
19038;SDS011;9652;49.014;12.052;2023-04-16T04:03:07;2.50;;;2.40;;
19038;SDS011;9652;49.014;12.052;2023-04-16T04:05:35;2.93;;;2.73;;
19038;SDS011;9652;49.014;12.052;2023-04-16T04:08:02;2.50;;;2.33;;
19038;SDS011;9652;49.014;12.052;2023-04-16T04:10:31;2.87;;;2.67;;
19038;SDS011;9652;49.014;12.052;2023-04-16T04:13:01;2.30;;;2.20;;
19038;SDS011;9652;49.014;12.052;2023-04-16T04:15:31;3.20;;;3.00;;
19038;SDS011;9652;49.014;12.052;2023-04-16T04:17:58;2.47;;;2.33;;
19038;SDS011;9652;49.014;12.052;2023-04-16T04:20:25;2.80;;;2.60;;
19038;SDS011;9652;49.014;12.052;2023-04-16T04:22:52;2.70;;;2.50;;
19038;SDS011;9652;49.014;12.052;2023-04-16T04:25:23;2.40;;;2.30;;
19038;SDS011;9652;49.014;12.052;2023-04-16T04:27:50;2.10;;;2.00;;
19038;SDS011;9652;49.014;12.052;2023-04-16T04:30:19;2.70;;;2.50;;
19038;SDS011;9652;49.014;12.052;2023-04-16T04:32:46;2.83;;;2.63;;
19038;SDS011;9652;49.014;12.052;2023-04-16T04:35:14;2.67;;;2.47;;
19038;SDS011;9652;49.014;12.052;2023-04-16T04:37:42;2.73;;;2.53;;
19038;SDS011;9652;49.014;12.052;2023-04-16T04:40:16;2.27;;;2.17;;
19038;SDS011;9652;49.014;12.052;2023-04-16T04:42:44;3.07;;;2.77;;
19038;SDS011;9652;49.014;12.052;2023-04-16T04:45:11;2.47;;;2.37;;
19038;SDS011;9652;49.014;12.052;2023-04-16T04:47:41;2.57;;;2.37;;
19038;SDS011;9652;49.014;12.052;2023-04-16T04:50:09;2.90;;;2.70;;
19038;SDS011;9652;49.014;12.052;2023-04-16T04:52:37;3.07;;;2.80;;
19038;SDS011;9652;49.014;12.052;2023-04-16T04:55:05;2.40;;;2.20;;
19038;SDS011;9652;49.014;12.052;2023-04-16T04:57:34;2.53;;;2.37;;
19038;SDS011;9652;49.014;12.052;2023-04-16T05:00:02;2.93;;;2.13;;
19038;SDS011;9652;49.014;12.052;2023-04-16T05:02:38;2.73;;;2.57;;
19038;SDS011;9652;49.014;12.052;2023-04-16T05:05:07;3.07;;;2.87;;
19038;SDS011;9652;49.014;12.052;2023-04-16T05:07:34;2.73;;;2.53;;
19038;SDS011;9652;49.014;12.052;2023-04-16T05:10:01;2.80;;;2.60;;
19038;SDS011;9652;49.014;12.052;2023-04-16T05:12:28;2.73;;;2.53;;
19038;SDS011;9652;49.014;12.052;2023-04-16T05:14:55;2.40;;;2.20;;
19038;SDS011;9652;49.014;12.052;2023-04-16T05:17:22;2.30;;;2.20;;
19038;SDS011;9652;49.014;12.052;2023-04-16T05:19:49;2.20;;;2.00;;
19038;SDS011;9652;49.014;12.052;2023-04-16T05:22:18;2.43;;;2.30;;
19038;SDS011;9652;49.014;12.052;2023-04-16T05:24:45;2.13;;;2.03;;
19038;SDS011;9652;49.014;12.052;2023-04-16T05:27:12;2.10;;;1.90;;
19038;SDS011;9652;49.014;12.052;2023-04-16T05:29:40;2.43;;;2.23;;
19038;SDS011;9652;49.014;12.052;2023-04-16T05:32:06;2.00;;;1.90;;
19038;SDS011;9652;49.014;12.052;2023-04-16T05:34:34;1.97;;;1.87;;
19038;SDS011;9652;49.014;12.052;2023-04-16T05:37:01;2.30;;;2.20;;
19038;SDS011;9652;49.014;12.052;2023-04-16T05:39:29;2.40;;;2.20;;
19038;SDS011;9652;49.014;12.052;2023-04-16T05:41:56;1.93;;;1.83;;
19038;SDS011;9652;49.014;12.052;2023-04-16T05:44:24;2.37;;;2.20;;
19038;SDS011;9652;49.014;12.052;2023-04-16T05:46:51;2.43;;;2.23;;
19038;SDS011;9652;49.014;12.052;2023-04-16T05:49:18;2.33;;;2.13;;
19038;SDS011;9652;49.014;12.052;2023-04-16T05:51:45;3.10;;;2.90;;
19038;SDS011;9652;49.014;12.052;2023-04-16T05:54:12;1.93;;;1.83;;
19038;SDS011;9652;49.014;12.052;2023-04-16T05:56:41;1.90;;;1.80;;
19038;SDS011;9652;49.014;12.052;2023-04-16T05:59:08;2.00;;;1.90;;
19038;SDS011;9652;49.014;12.052;2023-04-16T06:01:35;2.43;;;1.87;;
19038;SDS011;9652;49.014;12.052;2023-04-16T06:04:02;2.20;;;2.10;;
19038;SDS011;9652;49.014;12.052;2023-04-16T06:06:29;2.03;;;1.93;;
19038;SDS011;9652;49.014;12.052;2023-04-16T06:08:56;2.03;;;1.93;;
19038;SDS011;9652;49.014;12.052;2023-04-16T06:11:23;3.03;;;1.87;;
19038;SDS011;9652;49.014;12.052;2023-04-16T06:13:53;2.30;;;2.10;;
19038;SDS011;9652;49.014;12.052;2023-04-16T06:16:20;2.00;;;1.90;;
19038;SDS011;9652;49.014;12.052;2023-04-16T06:18:47;1.80;;;1.70;;
19038;SDS011;9652;49.014;12.052;2023-04-16T06:21:14;1.73;;;1.63;;
19038;SDS011;9652;49.014;12.052;2023-04-16T06:23:41;2.00;;;1.90;;
19038;SDS011;9652;49.014;12.052;2023-04-16T06:26:09;2.80;;;1.90;;
19038;SDS011;9652;49.014;12.052;2023-04-16T06:28:36;2.07;;;1.97;;
19038;SDS011;9652;49.014;12.052;2023-04-16T06:31:05;2.17;;;2.03;;
19038;SDS011;9652;49.014;12.052;2023-04-16T06:33:32;1.73;;;1.63;;
19038;SDS011;9652;49.014;12.052;2023-04-16T06:35:59;2.00;;;1.87;;
19038;SDS011;9652;49.014;12.052;2023-04-16T06:38:26;2.00;;;1.90;;
19038;SDS011;9652;49.014;12.052;2023-04-16T06:40:53;2.30;;;2.10;;
19038;SDS011;9652;49.014;12.052;2023-04-16T06:43:20;2.13;;;2.03;;
19038;SDS011;9652;49.014;12.052;2023-04-16T06:45:47;2.40;;;2.20;;
19038;SDS011;9652;49.014;12.052;2023-04-16T06:48:16;1.90;;;1.80;;
19038;SDS011;9652;49.014;12.052;2023-04-16T06:50:43;2.40;;;2.20;;
19038;SDS011;9652;49.014;12.052;2023-04-16T06:53:10;2.37;;;2.23;;
19038;SDS011;9652;49.014;12.052;2023-04-16T06:55:37;2.30;;;2.10;;
19038;SDS011;9652;49.014;12.052;2023-04-16T06:58:04;2.03;;;1.93;;
19038;SDS011;9652;49.014;12.052;2023-04-16T07:00:31;2.43;;;2.23;;
19038;SDS011;9652;49.014;12.052;2023-04-16T07:02:59;2.10;;;1.90;;
19038;SDS011;9652;49.014;12.052;2023-04-16T07:05:28;2.43;;;2.23;;
19038;SDS011;9652;49.014;12.052;2023-04-16T07:07:55;2.40;;;2.10;;
19038;SDS011;9652;49.014;12.052;2023-04-16T07:10:24;3.10;;;2.70;;
19038;SDS011;9652;49.014;12.052;2023-04-16T07:12:51;2.30;;;2.10;;
19038;SDS011;9652;49.014;12.052;2023-04-16T07:15:18;2.20;;;2.10;;
19038;SDS011;9652;49.014;12.052;2023-04-16T07:17:45;2.40;;;2.20;;
19038;SDS011;9652;49.014;12.052;2023-04-16T07:20:12;2.30;;;2.17;;
19038;SDS011;9652;49.014;12.052;2023-04-16T07:22:41;1.90;;;1.80;;
19038;SDS011;9652;49.014;12.052;2023-04-16T07:25:08;1.80;;;1.70;;
19038;SDS011;9652;49.014;12.052;2023-04-16T07:27:36;1.80;;;1.70;;
19038;SDS011;9652;49.014;12.052;2023-04-16T07:30:03;2.10;;;2.00;;
19038;SDS011;9652;49.014;12.052;2023-04-16T07:32:32;2.20;;;2.00;;
19038;SDS011;9652;49.014;12.052;2023-04-16T07:34:59;2.00;;;1.90;;
19038;SDS011;9652;49.014;12.052;2023-04-16T07:37:27;2.17;;;2.00;;
19038;SDS011;9652;49.014;12.052;2023-04-16T07:39:56;1.83;;;1.73;;
19038;SDS011;9652;49.014;12.052;2023-04-16T07:42:24;2.07;;;1.87;;
19038;SDS011;9652;49.014;12.052;2023-04-16T07:44:53;1.70;;;1.60;;
19038;SDS011;9652;49.014;12.052;2023-04-16T07:47:20;1.80;;;1.70;;
19038;SDS011;9652;49.014;12.052;2023-04-16T07:49:50;1.53;;;1.43;;
19038;SDS011;9652;49.014;12.052;2023-04-16T07:52:18;1.70;;;1.60;;
19038;SDS011;9652;49.014;12.052;2023-04-16T07:54:45;1.70;;;1.60;;
19038;SDS011;9652;49.014;12.052;2023-04-16T07:57:13;2.10;;;2.00;;
19038;SDS011;9652;49.014;12.052;2023-04-16T07:59:40;1.80;;;1.70;;
19038;SDS011;9652;49.014;12.052;2023-04-16T08:02:08;1.63;;;1.53;;
19038;SDS011;9652;49.014;12.052;2023-04-16T08:04:39;1.43;;;1.33;;
19038;SDS011;9652;49.014;12.052;2023-04-16T08:07:07;1.50;;;1.40;;
19038;SDS011;9652;49.014;12.052;2023-04-16T08:09:34;1.30;;;1.30;;
19038;SDS011;9652;49.014;12.052;2023-04-16T08:12:02;1.60;;;1.50;;
19038;SDS011;9652;49.014;12.052;2023-04-16T08:14:30;1.60;;;1.50;;
19038;SDS011;9652;49.014;12.052;2023-04-16T08:16:57;1.90;;;1.80;;
19038;SDS011;9652;49.014;12.052;2023-04-16T08:19:24;1.90;;;1.80;;
19038;SDS011;9652;49.014;12.052;2023-04-16T08:21:51;1.80;;;1.70;;
19038;SDS011;9652;49.014;12.052;2023-04-16T08:24:19;2.57;;;1.60;;
19038;SDS011;9652;49.014;12.052;2023-04-16T08:26:46;1.87;;;1.77;;
19038;SDS011;9652;49.014;12.052;2023-04-16T08:29:13;1.90;;;1.80;;
19038;SDS011;9652;49.014;12.052;2023-04-16T08:31:41;1.40;;;1.30;;
19038;SDS011;9652;49.014;12.052;2023-04-16T08:34:09;1.60;;;1.50;;
19038;SDS011;9652;49.014;12.052;2023-04-16T08:36:36;1.60;;;1.50;;
19038;SDS011;9652;49.014;12.052;2023-04-16T08:39:03;2.03;;;1.70;;
19038;SDS011;9652;49.014;12.052;2023-04-16T08:41:31;1.70;;;1.60;;
19038;SDS011;9652;49.014;12.052;2023-04-16T08:44:03;1.60;;;1.50;;
19038;SDS011;9652;49.014;12.052;2023-04-16T08:46:35;1.20;;;1.20;;
19038;SDS011;9652;49.014;12.052;2023-04-16T08:49:05;1.70;;;1.60;;
19038;SDS011;9652;49.014;12.052;2023-04-16T08:51:33;1.20;;;1.20;;
19038;SDS011;9652;49.014;12.052;2023-04-16T08:54:02;1.00;;;1.00;;
19038;SDS011;9652;49.014;12.052;2023-04-16T08:56:34;1.27;;;1.17;;
19038;SDS011;9652;49.014;12.052;2023-04-16T08:59:02;1.20;;;1.10;;
19038;SDS011;9652;49.014;12.052;2023-04-16T09:01:30;1.00;;;1.00;;
19038;SDS011;9652;49.014;12.052;2023-04-16T09:03:58;1.00;;;1.00;;
19038;SDS011;9652;49.014;12.052;2023-04-16T09:06:27;0.93;;;0.93;;
19038;SDS011;9652;49.014;12.052;2023-04-16T09:08:55;2.33;;;1.10;;
19038;SDS011;9652;49.014;12.052;2023-04-16T09:11:28;1.10;;;1.10;;
19038;SDS011;9652;49.014;12.052;2023-04-16T09:13:56;1.33;;;1.23;;
19038;SDS011;9652;49.014;12.052;2023-04-16T09:16:23;1.10;;;1.10;;
19038;SDS011;9652;49.014;12.052;2023-04-16T09:18:51;1.00;;;1.00;;
19038;SDS011;9652;49.014;12.052;2023-04-16T09:21:19;1.20;;;1.10;;
19038;SDS011;9652;49.014;12.052;2023-04-16T09:23:49;1.00;;;1.00;;
19038;SDS011;9652;49.014;12.052;2023-04-16T09:26:18;0.97;;;0.97;;
19038;SDS011;9652;49.014;12.052;2023-04-16T09:28:46;1.17;;;1.07;;
19038;SDS011;9652;49.014;12.052;2023-04-16T09:31:15;0.90;;;0.90;;
19038;SDS011;9652;49.014;12.052;2023-04-16T09:33:59;1.27;;;1.13;;
19038;SDS011;9652;49.014;12.052;2023-04-16T09:36:28;0.90;;;0.90;;
19038;SDS011;9652;49.014;12.052;2023-04-16T09:38:58;0.80;;;0.80;;
19038;SDS011;9652;49.014;12.052;2023-04-16T09:41:26;0.80;;;0.70;;
19038;SDS011;9652;49.014;12.052;2023-04-16T09:43:55;1.00;;;1.00;;
19038;SDS011;9652;49.014;12.052;2023-04-16T09:46:28;1.50;;;0.70;;
19038;SDS011;9652;49.014;12.052;2023-04-16T09:48:56;0.73;;;0.73;;
19038;SDS011;9652;49.014;12.052;2023-04-16T09:51:23;1.00;;;0.90;;
19038;SDS011;9652;49.014;12.052;2023-04-16T09:53:52;0.80;;;0.80;;
19038;SDS011;9652;49.014;12.052;2023-04-16T09:56:23;1.00;;;1.00;;
19038;SDS011;9652;49.014;12.052;2023-04-16T09:58:55;0.90;;;0.90;;
19038;SDS011;9652;49.014;12.052;2023-04-16T10:01:24;0.80;;;0.80;;
19038;SDS011;9652;49.014;12.052;2023-04-16T10:03:52;0.80;;;0.80;;
19038;SDS011;9652;49.014;12.052;2023-04-16T10:06:20;0.80;;;0.80;;
19038;SDS011;9652;49.014;12.052;2023-04-16T10:08:51;1.60;;;1.20;;
19038;SDS011;9652;49.014;12.052;2023-04-16T10:11:21;0.77;;;0.77;;
19038;SDS011;9652;49.014;12.052;2023-04-16T10:13:49;0.83;;;0.83;;
19038;SDS011;9652;49.014;12.052;2023-04-16T10:16:17;1.13;;;1.03;;
19038;SDS011;9652;49.014;12.052;2023-04-16T10:18:44;0.93;;;0.83;;
19038;SDS011;9652;49.014;12.052;2023-04-16T10:21:12;0.70;;;0.70;;
19038;SDS011;9652;49.014;12.052;2023-04-16T10:23:40;1.13;;;0.90;;
19038;SDS011;9652;49.014;12.052;2023-04-16T10:26:09;1.20;;;1.10;;
19038;SDS011;9652;49.014;12.052;2023-04-16T10:28:36;1.83;;;1.73;;
19038;SDS011;9652;49.014;12.052;2023-04-16T10:31:06;0.90;;;0.90;;
19038;SDS011;9652;49.014;12.052;2023-04-16T10:33:34;1.97;;;1.00;;
19038;SDS011;9652;49.014;12.052;2023-04-16T10:36:06;0.90;;;0.90;;
19038;SDS011;9652;49.014;12.052;2023-04-16T10:38:36;0.87;;;0.87;;
19038;SDS011;9652;49.014;12.052;2023-04-16T10:41:05;1.60;;;0.90;;
19038;SDS011;9652;49.014;12.052;2023-04-16T10:43:37;0.80;;;0.80;;
19038;SDS011;9652;49.014;12.052;2023-04-16T10:46:17;1.17;;;1.07;;
19038;SDS011;9652;49.014;12.052;2023-04-16T10:48:47;1.00;;;1.00;;
19038;SDS011;9652;49.014;12.052;2023-04-16T10:51:24;0.97;;;0.97;;
19038;SDS011;9652;49.014;12.052;2023-04-16T10:53:55;1.20;;;1.10;;
19038;SDS011;9652;49.014;12.052;2023-04-16T10:56:30;1.30;;;1.20;;
19038;SDS011;9652;49.014;12.052;2023-04-16T10:58:58;1.00;;;0.90;;
19038;SDS011;9652;49.014;12.052;2023-04-16T11:01:31;1.27;;;0.90;;
19038;SDS011;9652;49.014;12.052;2023-04-16T11:03:59;0.70;;;0.70;;
19038;SDS011;9652;49.014;12.052;2023-04-16T11:07:00;1.00;;;1.00;;
19038;SDS011;9652;49.014;12.052;2023-04-16T11:09:45;1.00;;;0.90;;
19038;SDS011;9652;49.014;12.052;2023-04-16T11:12:18;0.90;;;0.90;;
19038;SDS011;9652;49.014;12.052;2023-04-16T11:14:48;0.80;;;0.80;;
19038;SDS011;9652;49.014;12.052;2023-04-16T11:17:19;0.83;;;0.70;;
19038;SDS011;9652;49.014;12.052;2023-04-16T11:19:46;0.80;;;0.80;;
19038;SDS011;9652;49.014;12.052;2023-04-16T11:22:15;0.80;;;0.70;;
19038;SDS011;9652;49.014;12.052;2023-04-16T11:24:43;0.60;;;0.60;;
19038;SDS011;9652;49.014;12.052;2023-04-16T11:27:11;1.00;;;0.87;;
19038;SDS011;9652;49.014;12.052;2023-04-16T11:29:39;1.80;;;1.10;;
19038;SDS011;9652;49.014;12.052;2023-04-16T11:32:06;0.90;;;0.80;;
19038;SDS011;9652;49.014;12.052;2023-04-16T11:34:41;1.00;;;1.00;;
19038;SDS011;9652;49.014;12.052;2023-04-16T11:37:10;1.43;;;0.80;;
19038;SDS011;9652;49.014;12.052;2023-04-16T11:39:46;1.00;;;0.90;;
19038;SDS011;9652;49.014;12.052;2023-04-16T11:42:18;0.97;;;0.80;;
19038;SDS011;9652;49.014;12.052;2023-04-16T11:44:51;0.90;;;0.90;;
19038;SDS011;9652;49.014;12.052;2023-04-16T11:47:20;1.00;;;0.90;;
19038;SDS011;9652;49.014;12.052;2023-04-16T11:49:49;0.80;;;0.80;;
19038;SDS011;9652;49.014;12.052;2023-04-16T11:52:26;1.37;;;0.90;;
19038;SDS011;9652;49.014;12.052;2023-04-16T11:54:54;1.63;;;0.70;;
19038;SDS011;9652;49.014;12.052;2023-04-16T11:57:23;0.80;;;0.80;;
19038;SDS011;9652;49.014;12.052;2023-04-16T11:59:51;0.80;;;0.73;;
19038;SDS011;9652;49.014;12.052;2023-04-16T12:02:32;0.73;;;0.70;;
19038;SDS011;9652;49.014;12.052;2023-04-16T12:05:03;0.83;;;0.77;;
19038;SDS011;9652;49.014;12.052;2023-04-16T12:07:33;1.40;;;0.70;;
19038;SDS011;9652;49.014;12.052;2023-04-16T12:10:10;0.63;;;0.63;;
19038;SDS011;9652;49.014;12.052;2023-04-16T12:12:38;0.83;;;0.67;;
19038;SDS011;9652;49.014;12.052;2023-04-16T12:15:05;0.83;;;0.70;;
19038;SDS011;9652;49.014;12.052;2023-04-16T12:17:34;0.67;;;0.67;;
19038;SDS011;9652;49.014;12.052;2023-04-16T12:20:07;0.80;;;0.73;;
19038;SDS011;9652;49.014;12.052;2023-04-16T12:22:37;0.80;;;0.60;;
19038;SDS011;9652;49.014;12.052;2023-04-16T12:25:06;0.93;;;0.70;;
19038;SDS011;9652;49.014;12.052;2023-04-16T12:27:41;0.70;;;0.70;;
19038;SDS011;9652;49.014;12.052;2023-04-16T12:30:11;0.77;;;0.77;;
19038;SDS011;9652;49.014;12.052;2023-04-16T12:32:40;0.70;;;0.60;;
19038;SDS011;9652;49.014;12.052;2023-04-16T12:35:11;0.77;;;0.60;;
19038;SDS011;9652;49.014;12.052;2023-04-16T12:37:38;0.63;;;0.63;;
19038;SDS011;9652;49.014;12.052;2023-04-16T12:40:06;1.07;;;0.80;;
19038;SDS011;9652;49.014;12.052;2023-04-16T12:42:34;0.80;;;0.70;;
19038;SDS011;9652;49.014;12.052;2023-04-16T12:45:02;0.60;;;0.60;;
19038;SDS011;9652;49.014;12.052;2023-04-16T12:47:31;0.57;;;0.57;;
19038;SDS011;9652;49.014;12.052;2023-04-16T12:49:58;1.10;;;0.90;;
19038;SDS011;9652;49.014;12.052;2023-04-16T12:52:26;0.80;;;0.80;;
19038;SDS011;9652;49.014;12.052;2023-04-16T12:54:53;0.60;;;0.60;;
19038;SDS011;9652;49.014;12.052;2023-04-16T12:57:21;0.70;;;0.70;;
19038;SDS011;9652;49.014;12.052;2023-04-16T12:59:52;1.10;;;1.00;;
19038;SDS011;9652;49.014;12.052;2023-04-16T13:02:20;1.47;;;1.30;;
19038;SDS011;9652;49.014;12.052;2023-04-16T13:04:48;1.70;;;1.50;;
19038;SDS011;9652;49.014;12.052;2023-04-16T13:07:15;1.30;;;1.20;;
19038;SDS011;9652;49.014;12.052;2023-04-16T13:09:44;2.27;;;1.37;;
19038;SDS011;9652;49.014;12.052;2023-04-16T13:12:12;2.20;;;1.37;;
19038;SDS011;9652;49.014;12.052;2023-04-16T13:14:39;1.80;;;1.70;;
19038;SDS011;9652;49.014;12.052;2023-04-16T13:17:06;1.50;;;1.40;;
19038;SDS011;9652;49.014;12.052;2023-04-16T13:19:33;1.63;;;1.20;;
19038;SDS011;9652;49.014;12.052;2023-04-16T13:22:00;1.40;;;1.30;;
19038;SDS011;9652;49.014;12.052;2023-04-16T13:24:28;1.37;;;1.27;;
19038;SDS011;9652;49.014;12.052;2023-04-16T13:26:57;2.27;;;1.47;;
19038;SDS011;9652;49.014;12.052;2023-04-16T13:29:24;2.33;;;1.77;;
19038;SDS011;9652;49.014;12.052;2023-04-16T13:31:51;3.47;;;2.53;;
19038;SDS011;9652;49.014;12.052;2023-04-16T13:34:18;5.63;;;3.37;;
19038;SDS011;9652;49.014;12.052;2023-04-16T13:36:45;3.93;;;2.90;;
19038;SDS011;9652;49.014;12.052;2023-04-16T13:39:12;2.60;;;2.03;;
19038;SDS011;9652;49.014;12.052;2023-04-16T13:41:39;2.30;;;2.10;;
19038;SDS011;9652;49.014;12.052;2023-04-16T13:44:08;2.47;;;1.83;;
19038;SDS011;9652;49.014;12.052;2023-04-16T13:46:35;1.73;;;1.63;;
19038;SDS011;9652;49.014;12.052;2023-04-16T13:49:02;2.00;;;1.77;;
19038;SDS011;9652;49.014;12.052;2023-04-16T13:51:29;1.50;;;1.40;;
19038;SDS011;9652;49.014;12.052;2023-04-16T13:53:56;2.10;;;1.90;;
19038;SDS011;9652;49.014;12.052;2023-04-16T13:56:24;1.70;;;1.50;;
19038;SDS011;9652;49.014;12.052;2023-04-16T13:58:51;1.40;;;1.30;;
19038;SDS011;9652;49.014;12.052;2023-04-16T14:01:19;2.00;;;1.40;;
19038;SDS011;9652;49.014;12.052;2023-04-16T14:03:47;1.30;;;1.23;;
19038;SDS011;9652;49.014;12.052;2023-04-16T14:06:15;1.40;;;1.30;;
19038;SDS011;9652;49.014;12.052;2023-04-16T14:08:42;1.50;;;1.40;;
19038;SDS011;9652;49.014;12.052;2023-04-16T14:11:09;3.00;;;1.20;;
19038;SDS011;9652;49.014;12.052;2023-04-16T14:13:37;1.30;;;1.20;;
19038;SDS011;9652;49.014;12.052;2023-04-16T14:16:04;1.17;;;1.13;;
19038;SDS011;9652;49.014;12.052;2023-04-16T14:18:33;0.87;;;0.87;;
19038;SDS011;9652;49.014;12.052;2023-04-16T14:21:00;1.03;;;0.90;;
19038;SDS011;9652;49.014;12.052;2023-04-16T14:23:27;0.77;;;0.77;;
19038;SDS011;9652;49.014;12.052;2023-04-16T14:25:54;1.13;;;0.87;;
19038;SDS011;9652;49.014;12.052;2023-04-16T14:28:21;0.80;;;0.80;;
19038;SDS011;9652;49.014;12.052;2023-04-16T14:30:48;0.70;;;0.70;;
19038;SDS011;9652;49.014;12.052;2023-04-16T14:33:15;0.70;;;0.70;;
19038;SDS011;9652;49.014;12.052;2023-04-16T14:35:43;0.70;;;0.70;;
19038;SDS011;9652;49.014;12.052;2023-04-16T14:38:11;0.80;;;0.80;;
19038;SDS011;9652;49.014;12.052;2023-04-16T14:40:38;1.10;;;1.00;;
19038;SDS011;9652;49.014;12.052;2023-04-16T14:43:05;1.00;;;1.00;;
19038;SDS011;9652;49.014;12.052;2023-04-16T14:45:32;0.73;;;0.73;;
19038;SDS011;9652;49.014;12.052;2023-04-16T14:48:02;0.73;;;0.73;;
19038;SDS011;9652;49.014;12.052;2023-04-16T14:50:30;0.70;;;0.70;;
19038;SDS011;9652;49.014;12.052;2023-04-16T14:53:03;0.53;;;0.50;;
19038;SDS011;9652;49.014;12.052;2023-04-16T14:55:30;0.70;;;0.70;;